Elvira, Iowa
Current Conditions -  °F | °C
As of 2:15 PM on Thursday 29 Jan 2015 (Local Time) from KCWI Reporting Station
Overcast Overcast  
Wind Chill: 25°   Ceiling: 2500
Heat Index: 36°   Visibility: 10mi
Dew Point: 27°   Wind: 21mph
Humidity: 70%   Direction: 320°NW
Pressure: 30.13"   Gusts: 29mph
Location:  41.8802°N, 90.2992°W
Report Text: KCWI 292015Z AUTO 32018G25KT 10SM OVC025 02/M03 A3013 RMK AO1
Loading
Personal Weather Stations






























Interactive Weather Map New forecast layout! Learn more

10-Day Weather Forecast

Advertisements
Track Severe Weather on mobile